sensor_id;sensor_type;location;lat;lon;timestamp;P1;durP1;ratioP1;P2;durP2;ratioP2
71753;SDS011;59593;51.716;7.016;2023-11-21T00:00:37;11.60;;;7.47;;
71753;SDS011;59593;51.716;7.016;2023-11-21T00:03:02;11.47;;;8.33;;
71753;SDS011;59593;51.716;7.016;2023-11-21T00:05:29;12.77;;;8.13;;
71753;SDS011;59593;51.716;7.016;2023-11-21T00:07:54;12.10;;;8.53;;
71753;SDS011;59593;51.716;7.016;2023-11-21T00:10:20;13.87;;;9.40;;
71753;SDS011;59593;51.716;7.016;2023-11-21T00:12:46;17.40;;;9.60;;
71753;SDS011;59593;51.716;7.016;2023-11-21T00:15:13;15.20;;;9.70;;
71753;SDS011;59593;51.716;7.016;2023-11-21T00:17:39;20.03;;;11.33;;
71753;SDS011;59593;51.716;7.016;2023-11-21T00:20:06;18.53;;;10.07;;
71753;SDS011;59593;51.716;7.016;2023-11-21T00:22:35;18.53;;;10.97;;
71753;SDS011;59593;51.716;7.016;2023-11-21T00:25:01;19.90;;;10.97;;
71753;SDS011;59593;51.716;7.016;2023-11-21T00:27:28;23.43;;;11.53;;
71753;SDS011;59593;51.716;7.016;2023-11-21T00:29:54;20.47;;;11.93;;
71753;SDS011;59593;51.716;7.016;2023-11-21T00:32:20;19.93;;;12.50;;
71753;SDS011;59593;51.716;7.016;2023-11-21T00:34:45;18.90;;;12.40;;
71753;SDS011;59593;51.716;7.016;2023-11-21T00:37:11;21.80;;;12.47;;
71753;SDS011;59593;51.716;7.016;2023-11-21T00:39:36;18.37;;;12.30;;
71753;SDS011;59593;51.716;7.016;2023-11-21T00:42:02;20.97;;;13.53;;
71753;SDS011;59593;51.716;7.016;2023-11-21T00:44:29;22.50;;;13.48;;
71753;SDS011;59593;51.716;7.016;2023-11-21T00:46:55;25.27;;;14.93;;
71753;SDS011;59593;51.716;7.016;2023-11-21T00:49:21;19.53;;;13.57;;
71753;SDS011;59593;51.716;7.016;2023-11-21T00:51:46;21.63;;;13.93;;
71753;SDS011;59593;51.716;7.016;2023-11-21T00:54:12;25.33;;;14.10;;
71753;SDS011;59593;51.716;7.016;2023-11-21T00:56:37;23.17;;;13.60;;
71753;SDS011;59593;51.716;7.016;2023-11-21T00:59:03;31.57;;;15.50;;
71753;SDS011;59593;51.716;7.016;2023-11-21T01:01:30;26.87;;;14.97;;
71753;SDS011;59593;51.716;7.016;2023-11-21T01:03:55;28.40;;;13.23;;
71753;SDS011;59593;51.716;7.016;2023-11-21T01:06:21;27.23;;;14.80;;
71753;SDS011;59593;51.716;7.016;2023-11-21T01:08:46;34.77;;;14.77;;
71753;SDS011;59593;51.716;7.016;2023-11-21T01:11:12;42.23;;;14.43;;
71753;SDS011;59593;51.716;7.016;2023-11-21T01:13:41;26.17;;;13.80;;
71753;SDS011;59593;51.716;7.016;2023-11-21T01:16:07;25.93;;;13.50;;
71753;SDS011;59593;51.716;7.016;2023-11-21T01:18:34;30.37;;;13.23;;
71753;SDS011;59593;51.716;7.016;2023-11-21T01:21:00;36.78;;;13.10;;
71753;SDS011;59593;51.716;7.016;2023-11-21T01:23:26;30.10;;;13.83;;
71753;SDS011;59593;51.716;7.016;2023-11-21T01:25:52;16.63;;;12.93;;
71753;SDS011;59593;51.716;7.016;2023-11-21T01:28:18;41.93;;;13.30;;
71753;SDS011;59593;51.716;7.016;2023-11-21T01:30:44;27.40;;;13.10;;
71753;SDS011;59593;51.716;7.016;2023-11-21T01:33:10;23.90;;;13.07;;
71753;SDS011;59593;51.716;7.016;2023-11-21T01:35:36;15.23;;;12.93;;
71753;SDS011;59593;51.716;7.016;2023-11-21T01:38:02;18.57;;;12.20;;
71753;SDS011;59593;51.716;7.016;2023-11-21T01:40:28;28.63;;;11.50;;
71753;SDS011;59593;51.716;7.016;2023-11-21T01:42:55;25.50;;;11.23;;
71753;SDS011;59593;51.716;7.016;2023-11-21T01:45:22;34.00;;;11.30;;
71753;SDS011;59593;51.716;7.016;2023-11-21T01:47:50;12.37;;;11.00;;
71753;SDS011;59593;51.716;7.016;2023-11-21T01:50:16;19.40;;;11.13;;
71753;SDS011;59593;51.716;7.016;2023-11-21T01:52:43;35.27;;;12.47;;
71753;SDS011;59593;51.716;7.016;2023-11-21T01:55:10;26.03;;;12.47;;
71753;SDS011;59593;51.716;7.016;2023-11-21T01:57:37;15.97;;;12.03;;
71753;SDS011;59593;51.716;7.016;2023-11-21T02:00:03;17.20;;;11.03;;
71753;SDS011;59593;51.716;7.016;2023-11-21T02:02:40;17.07;;;11.33;;
71753;SDS011;59593;51.716;7.016;2023-11-21T02:05:12;15.17;;;11.60;;
71753;SDS011;59593;51.716;7.016;2023-11-21T02:07:40;14.57;;;11.70;;
71753;SDS011;59593;51.716;7.016;2023-11-21T02:10:08;15.77;;;11.60;;
71753;SDS011;59593;51.716;7.016;2023-11-21T02:12:34;15.17;;;11.47;;
71753;SDS011;59593;51.716;7.016;2023-11-21T02:15:03;13.23;;;11.33;;
71753;SDS011;59593;51.716;7.016;2023-11-21T02:17:34;29.07;;;10.90;;
71753;SDS011;59593;51.716;7.016;2023-11-21T02:20:03;12.60;;;10.73;;
71753;SDS011;59593;51.716;7.016;2023-11-21T02:22:31;14.20;;;10.67;;
71753;SDS011;59593;51.716;7.016;2023-11-21T02:25:02;16.63;;;11.47;;
71753;SDS011;59593;51.716;7.016;2023-11-21T02:27:28;23.23;;;11.83;;
71753;SDS011;59593;51.716;7.016;2023-11-21T02:29:53;13.90;;;11.90;;
71753;SDS011;59593;51.716;7.016;2023-11-21T02:32:19;12.53;;;11.03;;
71753;SDS011;59593;51.716;7.016;2023-11-21T02:34:47;12.93;;;11.03;;
71753;SDS011;59593;51.716;7.016;2023-11-21T02:37:13;17.33;;;12.00;;
71753;SDS011;59593;51.716;7.016;2023-11-21T02:39:39;13.30;;;11.13;;
71753;SDS011;59593;51.716;7.016;2023-11-21T02:42:04;14.20;;;11.40;;
71753;SDS011;59593;51.716;7.016;2023-11-21T02:44:30;12.03;;;10.07;;
71753;SDS011;59593;51.716;7.016;2023-11-21T02:46:56;12.80;;;10.53;;
71753;SDS011;59593;51.716;7.016;2023-11-21T02:49:22;11.97;;;9.90;;
71753;SDS011;59593;51.716;7.016;2023-11-21T02:51:48;12.87;;;10.10;;
71753;SDS011;59593;51.716;7.016;2023-11-21T02:54:13;12.63;;;10.17;;
71753;SDS011;59593;51.716;7.016;2023-11-21T02:56:39;11.30;;;9.80;;
71753;SDS011;59593;51.716;7.016;2023-11-21T02:59:05;11.10;;;9.90;;
71753;SDS011;59593;51.716;7.016;2023-11-21T03:01:30;12.93;;;10.53;;
71753;SDS011;59593;51.716;7.016;2023-11-21T03:03:56;11.37;;;10.17;;
71753;SDS011;59593;51.716;7.016;2023-11-21T03:06:22;12.73;;;10.37;;
71753;SDS011;59593;51.716;7.016;2023-11-21T03:08:48;12.77;;;10.30;;
71753;SDS011;59593;51.716;7.016;2023-11-21T03:11:14;12.60;;;9.50;;
71753;SDS011;59593;51.716;7.016;2023-11-21T03:13:40;11.33;;;9.30;;
71753;SDS011;59593;51.716;7.016;2023-11-21T03:16:09;10.37;;;9.27;;
71753;SDS011;59593;51.716;7.016;2023-11-21T03:18:35;9.60;;;8.67;;
71753;SDS011;59593;51.716;7.016;2023-11-21T03:21:02;10.10;;;9.10;;
71753;SDS011;59593;51.716;7.016;2023-11-21T03:23:28;10.63;;;8.77;;
71753;SDS011;59593;51.716;7.016;2023-11-21T03:25:54;9.83;;;8.83;;
71753;SDS011;59593;51.716;7.016;2023-11-21T03:28:19;10.50;;;9.13;;
71753;SDS011;59593;51.716;7.016;2023-11-21T03:30:45;10.60;;;9.00;;
71753;SDS011;59593;51.716;7.016;2023-11-21T03:33:11;11.13;;;9.07;;
71753;SDS011;59593;51.716;7.016;2023-11-21T03:35:37;8.97;;;8.10;;
71753;SDS011;59593;51.716;7.016;2023-11-21T03:38:03;9.03;;;8.13;;
71753;SDS011;59593;51.716;7.016;2023-11-21T03:40:29;9.63;;;8.63;;
71753;SDS011;59593;51.716;7.016;2023-11-21T03:42:56;13.00;;;8.47;;
71753;SDS011;59593;51.716;7.016;2023-11-21T03:45:22;9.50;;;8.50;;
71753;SDS011;59593;51.716;7.016;2023-11-21T03:47:48;9.90;;;8.90;;
71753;SDS011;59593;51.716;7.016;2023-11-21T03:50:13;9.23;;;8.03;;
71753;SDS011;59593;51.716;7.016;2023-11-21T03:52:39;9.10;;;8.20;;
71753;SDS011;59593;51.716;7.016;2023-11-21T03:55:04;8.87;;;7.97;;
71753;SDS011;59593;51.716;7.016;2023-11-21T03:57:30;10.03;;;8.40;;
71753;SDS011;59593;51.716;7.016;2023-11-21T03:59:56;8.53;;;7.53;;
71753;SDS011;59593;51.716;7.016;2023-11-21T04:02:21;8.33;;;7.53;;
71753;SDS011;59593;51.716;7.016;2023-11-21T04:04:47;8.50;;;7.60;;
71753;SDS011;59593;51.716;7.016;2023-11-21T04:07:12;8.87;;;7.97;;
71753;SDS011;59593;51.716;7.016;2023-11-21T04:09:38;8.43;;;7.47;;
71753;SDS011;59593;51.716;7.016;2023-11-21T04:12:04;9.40;;;7.70;;
71753;SDS011;59593;51.716;7.016;2023-11-21T04:14:30;9.23;;;7.90;;
71753;SDS011;59593;51.716;7.016;2023-11-21T04:16:56;8.50;;;7.60;;
71753;SDS011;59593;51.716;7.016;2023-11-21T04:19:22;9.97;;;8.00;;
71753;SDS011;59593;51.716;7.016;2023-11-21T04:21:47;8.97;;;8.03;;
71753;SDS011;59593;51.716;7.016;2023-11-21T04:24:13;8.60;;;7.80;;
71753;SDS011;59593;51.716;7.016;2023-11-21T04:26:38;10.50;;;7.63;;
71753;SDS011;59593;51.716;7.016;2023-11-21T04:29:04;9.90;;;7.90;;
71753;SDS011;59593;51.716;7.016;2023-11-21T04:31:30;8.57;;;7.67;;
71753;SDS011;59593;51.716;7.016;2023-11-21T04:33:55;9.20;;;8.07;;
71753;SDS011;59593;51.716;7.016;2023-11-21T04:36:21;10.73;;;7.93;;
71753;SDS011;59593;51.716;7.016;2023-11-21T04:38:46;11.73;;;8.23;;
71753;SDS011;59593;51.716;7.016;2023-11-21T04:41:12;9.67;;;8.60;;
71753;SDS011;59593;51.716;7.016;2023-11-21T04:43:38;11.30;;;9.40;;
71753;SDS011;59593;51.716;7.016;2023-11-21T04:46:03;12.97;;;9.03;;
71753;SDS011;59593;51.716;7.016;2023-11-21T04:48:29;10.03;;;8.97;;
71753;SDS011;59593;51.716;7.016;2023-11-21T04:50:54;9.37;;;8.43;;
71753;SDS011;59593;51.716;7.016;2023-11-21T04:53:20;10.30;;;8.80;;
71753;SDS011;59593;51.716;7.016;2023-11-21T04:55:46;9.30;;;8.40;;
71753;SDS011;59593;51.716;7.016;2023-11-21T04:58:11;10.03;;;8.50;;
71753;SDS011;59593;51.716;7.016;2023-11-21T05:00:37;9.70;;;8.10;;
71753;SDS011;59593;51.716;7.016;2023-11-21T05:03:03;9.53;;;7.70;;
71753;SDS011;59593;51.716;7.016;2023-11-21T05:05:30;10.40;;;7.90;;
71753;SDS011;59593;51.716;7.016;2023-11-21T05:07:55;11.20;;;8.23;;
71753;SDS011;59593;51.716;7.016;2023-11-21T05:10:21;9.60;;;8.07;;
71753;SDS011;59593;51.716;7.016;2023-11-21T05:12:49;12.20;;;8.47;;
71753;SDS011;59593;51.716;7.016;2023-11-21T05:15:15;12.40;;;8.93;;
71753;SDS011;59593;51.716;7.016;2023-11-21T05:17:42;10.50;;;8.63;;
71753;SDS011;59593;51.716;7.016;2023-11-21T05:20:15;10.03;;;8.80;;
71753;SDS011;59593;51.716;7.016;2023-11-21T05:22:46;10.33;;;7.97;;
71753;SDS011;59593;51.716;7.016;2023-11-21T05:25:13;9.30;;;8.17;;
71753;SDS011;59593;51.716;7.016;2023-11-21T05:27:39;11.27;;;8.47;;
71753;SDS011;59593;51.716;7.016;2023-11-21T05:30:05;12.03;;;8.83;;
71753;SDS011;59593;51.716;7.016;2023-11-21T05:32:31;12.80;;;9.70;;
71753;SDS011;59593;51.716;7.016;2023-11-21T05:34:57;13.13;;;9.70;;
71753;SDS011;59593;51.716;7.016;2023-11-21T05:37:23;19.07;;;13.33;;
71753;SDS011;59593;51.716;7.016;2023-11-21T05:39:50;13.50;;;10.93;;
71753;SDS011;59593;51.716;7.016;2023-11-21T05:42:16;14.00;;;11.33;;
71753;SDS011;59593;51.716;7.016;2023-11-21T05:44:42;17.20;;;12.77;;
71753;SDS011;59593;51.716;7.016;2023-11-21T05:47:10;18.97;;;13.40;;
71753;SDS011;59593;51.716;7.016;2023-11-21T05:49:36;23.03;;;16.23;;
71753;SDS011;59593;51.716;7.016;2023-11-21T05:52:02;26.37;;;17.40;;
71753;SDS011;59593;51.716;7.016;2023-11-21T05:54:28;22.20;;;16.57;;
71753;SDS011;59593;51.716;7.016;2023-11-21T05:56:53;21.00;;;16.40;;
71753;SDS011;59593;51.716;7.016;2023-11-21T05:59:19;18.13;;;14.37;;
71753;SDS011;59593;51.716;7.016;2023-11-21T06:01:45;20.47;;;16.40;;
71753;SDS011;59593;51.716;7.016;2023-11-21T06:04:11;21.63;;;15.57;;
71753;SDS011;59593;51.716;7.016;2023-11-21T06:06:38;18.30;;;15.13;;
71753;SDS011;59593;51.716;7.016;2023-11-21T06:09:04;19.83;;;14.20;;
71753;SDS011;59593;51.716;7.016;2023-11-21T06:11:31;18.43;;;13.30;;
71753;SDS011;59593;51.716;7.016;2023-11-21T06:13:56;23.17;;;14.07;;
71753;SDS011;59593;51.716;7.016;2023-11-21T06:16:23;18.60;;;13.07;;
71753;SDS011;59593;51.716;7.016;2023-11-21T06:18:49;25.17;;;14.30;;
71753;SDS011;59593;51.716;7.016;2023-11-21T06:21:15;26.90;;;13.63;;
71753;SDS011;59593;51.716;7.016;2023-11-21T06:23:42;53.07;;;15.10;;
71753;SDS011;59593;51.716;7.016;2023-11-21T06:26:07;42.97;;;14.83;;
71753;SDS011;59593;51.716;7.016;2023-11-21T06:28:34;51.10;;;16.63;;
71753;SDS011;59593;51.716;7.016;2023-11-21T06:31:01;35.47;;;16.90;;
71753;SDS011;59593;51.716;7.016;2023-11-21T06:33:31;32.93;;;16.90;;
71753;SDS011;59593;51.716;7.016;2023-11-21T06:35:57;40.97;;;17.57;;
71753;SDS011;59593;51.716;7.016;2023-11-21T06:38:22;95.83;;;22.37;;
71753;SDS011;59593;51.716;7.016;2023-11-21T06:40:48;48.40;;;20.33;;
71753;SDS011;59593;51.716;7.016;2023-11-21T06:43:13;55.73;;;20.23;;
71753;SDS011;59593;51.716;7.016;2023-11-21T06:45:40;37.47;;;20.23;;
71753;SDS011;59593;51.716;7.016;2023-11-21T06:48:06;68.27;;;21.17;;
71753;SDS011;59593;51.716;7.016;2023-11-21T06:50:31;81.47;;;21.03;;
71753;SDS011;59593;51.716;7.016;2023-11-21T06:52:57;69.37;;;20.27;;
71753;SDS011;59593;51.716;7.016;2023-11-21T06:55:23;53.90;;;18.50;;
71753;SDS011;59593;51.716;7.016;2023-11-21T06:57:48;341.53;;;27.23;;
71753;SDS011;59593;51.716;7.016;2023-11-21T07:00:15;85.83;;;20.80;;
71753;SDS011;59593;51.716;7.016;2023-11-21T07:02:42;70.97;;;20.63;;
71753;SDS011;59593;51.716;7.016;2023-11-21T07:05:08;41.37;;;22.27;;
71753;SDS011;59593;51.716;7.016;2023-11-21T07:07:34;62.73;;;24.93;;
71753;SDS011;59593;51.716;7.016;2023-11-21T07:10:02;48.93;;;27.27;;
71753;SDS011;59593;51.716;7.016;2023-11-21T07:12:28;47.63;;;25.40;;
71753;SDS011;59593;51.716;7.016;2023-11-21T07:14:56;60.13;;;25.33;;
71753;SDS011;59593;51.716;7.016;2023-11-21T07:17:21;62.17;;;22.50;;
71753;SDS011;59593;51.716;7.016;2023-11-21T07:19:48;71.53;;;20.73;;
71753;SDS011;59593;51.716;7.016;2023-11-21T07:22:14;58.93;;;20.00;;
71753;SDS011;59593;51.716;7.016;2023-11-21T07:24:47;40.10;;;19.90;;
71753;SDS011;59593;51.716;7.016;2023-11-21T07:27:13;35.57;;;19.93;;
71753;SDS011;59593;51.716;7.016;2023-11-21T07:29:39;40.63;;;20.50;;
71753;SDS011;59593;51.716;7.016;2023-11-21T07:32:05;32.70;;;19.17;;
71753;SDS011;59593;51.716;7.016;2023-11-21T07:34:31;47.07;;;19.80;;
71753;SDS011;59593;51.716;7.016;2023-11-21T07:36:57;49.60;;;20.33;;
71753;SDS011;59593;51.716;7.016;2023-11-21T07:39:22;45.47;;;19.33;;
71753;SDS011;59593;51.716;7.016;2023-11-21T07:41:48;50.97;;;19.20;;
71753;SDS011;59593;51.716;7.016;2023-11-21T07:44:15;50.47;;;26.03;;
71753;SDS011;59593;51.716;7.016;2023-11-21T07:46:42;39.50;;;19.30;;
71753;SDS011;59593;51.716;7.016;2023-11-21T07:49:08;118.40;;;20.10;;
71753;SDS011;59593;51.716;7.016;2023-11-21T07:51:34;31.50;;;18.20;;
71753;SDS011;59593;51.716;7.016;2023-11-21T07:53:59;43.90;;;18.57;;
71753;SDS011;59593;51.716;7.016;2023-11-21T07:56:25;33.10;;;18.10;;
71753;SDS011;59593;51.716;7.016;2023-11-21T07:58:51;42.03;;;20.57;;
71753;SDS011;59593;51.716;7.016;2023-11-21T08:01:17;51.57;;;21.37;;
71753;SDS011;59593;51.716;7.016;2023-11-21T08:03:42;64.73;;;19.23;;
71753;SDS011;59593;51.716;7.016;2023-11-21T08:06:09;41.63;;;19.10;;
71753;SDS011;59593;51.716;7.016;2023-11-21T08:08:34;43.30;;;20.97;;
71753;SDS011;59593;51.716;7.016;2023-11-21T08:11:01;55.30;;;20.20;;
71753;SDS011;59593;51.716;7.016;2023-11-21T08:13:27;47.93;;;22.57;;
71753;SDS011;59593;51.716;7.016;2023-11-21T08:15:54;47.60;;;22.10;;
71753;SDS011;59593;51.716;7.016;2023-11-21T08:18:19;55.40;;;22.03;;
71753;SDS011;59593;51.716;7.016;2023-11-21T08:20:45;47.53;;;20.93;;
71753;SDS011;59593;51.716;7.016;2023-11-21T08:23:16;113.80;;;23.00;;
71753;SDS011;59593;51.716;7.016;2023-11-21T08:25:43;76.30;;;19.93;;
71753;SDS011;59593;51.716;7.016;2023-11-21T08:28:09;50.37;;;21.10;;
71753;SDS011;59593;51.716;7.016;2023-11-21T08:30:35;38.10;;;19.17;;
71753;SDS011;59593;51.716;7.016;2023-11-21T08:33:00;38.47;;;19.83;;
71753;SDS011;59593;51.716;7.016;2023-11-21T08:35:28;48.77;;;20.77;;
71753;SDS011;59593;51.716;7.016;2023-11-21T08:37:53;40.70;;;20.10;;
71753;SDS011;59593;51.716;7.016;2023-11-21T08:40:19;62.23;;;19.07;;
71753;SDS011;59593;51.716;7.016;2023-11-21T08:42:46;26.27;;;17.90;;
71753;SDS011;59593;51.716;7.016;2023-11-21T08:45:12;28.57;;;19.70;;
71753;SDS011;59593;51.716;7.016;2023-11-21T08:47:39;48.07;;;19.77;;
71753;SDS011;59593;51.716;7.016;2023-11-21T08:50:06;42.50;;;19.53;;
71753;SDS011;59593;51.716;7.016;2023-11-21T08:52:33;40.10;;;19.87;;
71753;SDS011;59593;51.716;7.016;2023-11-21T08:54:59;65.67;;;21.67;;
71753;SDS011;59593;51.716;7.016;2023-11-21T08:57:27;42.67;;;20.23;;
71753;SDS011;59593;51.716;7.016;2023-11-21T08:59:53;47.83;;;21.30;;
71753;SDS011;59593;51.716;7.016;2023-11-21T09:02:25;45.03;;;22.87;;
71753;SDS011;59593;51.716;7.016;2023-11-21T09:04:51;112.80;;;25.80;;
71753;SDS011;59593;51.716;7.016;2023-11-21T09:07:17;27.17;;;19.37;;
71753;SDS011;59593;51.716;7.016;2023-11-21T09:09:46;45.93;;;19.70;;
71753;SDS011;59593;51.716;7.016;2023-11-21T09:12:12;42.93;;;20.10;;
71753;SDS011;59593;51.716;7.016;2023-11-21T09:14:38;33.43;;;19.70;;
71753;SDS011;59593;51.716;7.016;2023-11-21T09:17:04;45.33;;;22.20;;
71753;SDS011;59593;51.716;7.016;2023-11-21T09:19:35;29.73;;;19.33;;
71753;SDS011;59593;51.716;7.016;2023-11-21T09:22:04;34.43;;;20.90;;
71753;SDS011;59593;51.716;7.016;2023-11-21T09:24:30;43.80;;;20.23;;
71753;SDS011;59593;51.716;7.016;2023-11-21T09:26:56;45.63;;;21.20;;
71753;SDS011;59593;51.716;7.016;2023-11-21T09:29:22;35.30;;;20.60;;
71753;SDS011;59593;51.716;7.016;2023-11-21T09:31:48;39.30;;;22.43;;
71753;SDS011;59593;51.716;7.016;2023-11-21T09:34:16;35.87;;;20.00;;
71753;SDS011;59593;51.716;7.016;2023-11-21T09:36:44;28.27;;;19.57;;
71753;SDS011;59593;51.716;7.016;2023-11-21T09:39:10;35.73;;;19.63;;
71753;SDS011;59593;51.716;7.016;2023-11-21T09:41:52;46.97;;;17.83;;
71753;SDS011;59593;51.716;7.016;2023-11-21T09:44:35;41.30;;;18.07;;
71753;SDS011;59593;51.716;7.016;2023-11-21T09:47:01;35.37;;;20.97;;
71753;SDS011;59593;51.716;7.016;2023-11-21T09:49:28;35.87;;;20.73;;
71753;SDS011;59593;51.716;7.016;2023-11-21T09:51:59;39.27;;;20.03;;
71753;SDS011;59593;51.716;7.016;2023-11-21T09:54:28;32.77;;;19.87;;
71753;SDS011;59593;51.716;7.016;2023-11-21T09:56:56;32.37;;;19.10;;
71753;SDS011;59593;51.716;7.016;2023-11-21T09:59:25;29.63;;;19.43;;
71753;SDS011;59593;51.716;7.016;2023-11-21T10:01:57;34.03;;;18.40;;
71753;SDS011;59593;51.716;7.016;2023-11-21T10:04:23;30.03;;;19.53;;
71753;SDS011;59593;51.716;7.016;2023-11-21T10:06:49;36.93;;;19.20;;
71753;SDS011;59593;51.716;7.016;2023-11-21T10:09:16;28.33;;;19.20;;
71753;SDS011;59593;51.716;7.016;2023-11-21T10:11:42;28.10;;;18.20;;
71753;SDS011;59593;51.716;7.016;2023-11-21T10:14:12;30.07;;;17.87;;
71753;SDS011;59593;51.716;7.016;2023-11-21T10:16:39;32.57;;;18.27;;
71753;SDS011;59593;51.716;7.016;2023-11-21T10:19:09;26.00;;;17.57;;
71753;SDS011;59593;51.716;7.016;2023-11-21T10:21:35;26.60;;;18.17;;
71753;SDS011;59593;51.716;7.016;2023-11-21T10:24:04;35.50;;;18.17;;
71753;SDS011;59593;51.716;7.016;2023-11-21T10:26:30;29.97;;;18.10;;
71753;SDS011;59593;51.716;7.016;2023-11-21T10:28:58;34.07;;;21.30;;
71753;SDS011;59593;51.716;7.016;2023-11-21T10:31:28;33.67;;;21.23;;
71753;SDS011;59593;51.716;7.016;2023-11-21T10:36:39;31.97;;;19.87;;
71753;SDS011;59593;51.716;7.016;2023-11-21T10:39:05;33.60;;;20.67;;
71753;SDS011;59593;51.716;7.016;2023-11-21T10:41:31;27.97;;;19.27;;
71753;SDS011;59593;51.716;7.016;2023-11-21T10:43:57;30.17;;;20.27;;
71753;SDS011;59593;51.716;7.016;2023-11-21T10:46:23;31.23;;;19.93;;
71753;SDS011;59593;51.716;7.016;2023-11-21T10:48:54;29.70;;;19.57;;
71753;SDS011;59593;51.716;7.016;2023-11-21T10:51:21;27.97;;;18.80;;
71753;SDS011;59593;51.716;7.016;2023-11-21T10:53:46;30.07;;;18.27;;
71753;SDS011;59593;51.716;7.016;2023-11-21T10:56:15;28.53;;;19.23;;
71753;SDS011;59593;51.716;7.016;2023-11-21T10:58:46;31.23;;;20.23;;
71753;SDS011;59593;51.716;7.016;2023-11-21T11:01:17;34.73;;;19.60;;
71753;SDS011;59593;51.716;7.016;2023-11-21T11:03:44;36.90;;;20.47;;
71753;SDS011;59593;51.716;7.016;2023-11-21T11:06:10;29.57;;;18.87;;
71753;SDS011;59593;51.716;7.016;2023-11-21T11:08:40;32.07;;;19.70;;
71753;SDS011;59593;51.716;7.016;2023-11-21T11:11:06;33.53;;;20.13;;
71753;SDS011;59593;51.716;7.016;2023-11-21T11:13:32;29.67;;;18.83;;
71753;SDS011;59593;51.716;7.016;2023-11-21T11:15:58;33.30;;;19.58;;
71753;SDS011;59593;51.716;7.016;2023-11-21T11:18:26;36.10;;;21.97;;
71753;SDS011;59593;51.716;7.016;2023-11-21T11:21:07;31.90;;;20.07;;
71753;SDS011;59593;51.716;7.016;2023-11-21T11:26:43;33.42;;;19.70;;
71753;SDS011;59593;51.716;7.016;2023-11-21T11:32:16;32.20;;;18.80;;
71753;SDS011;59593;51.716;7.016;2023-11-21T11:34:53;35.87;;;19.80;;
71753;SDS011;59593;51.716;7.016;2023-11-21T11:37:32;32.30;;;19.52;;
71753;SDS011;59593;51.716;7.016;2023-11-21T11:39:58;35.37;;;19.90;;
71753;SDS011;59593;51.716;7.016;2023-11-21T11:42:24;31.23;;;19.53;;
71753;SDS011;59593;51.716;7.016;2023-11-21T11:44:52;33.60;;;19.50;;
71753;SDS011;59593;51.716;7.016;2023-11-21T11:47:20;35.53;;;19.30;;
71753;SDS011;59593;51.716;7.016;2023-11-21T11:52:47;36.42;;;20.45;;
71753;SDS011;59593;51.716;7.016;2023-11-21T11:55:17;33.80;;;18.97;;
71753;SDS011;59593;51.716;7.016;2023-11-21T11:57:48;30.55;;;18.15;;
71753;SDS011;59593;51.716;7.016;2023-11-21T12:00:19;53.37;;;26.07;;
71753;SDS011;59593;51.716;7.016;2023-11-21T12:02:52;35.00;;;19.15;;
71753;SDS011;59593;51.716;7.016;2023-11-21T12:05:22;31.60;;;18.95;;
71753;SDS011;59593;51.716;7.016;2023-11-21T12:07:51;34.83;;;20.60;;
71753;SDS011;59593;51.716;7.016;2023-11-21T12:10:22;33.20;;;19.60;;
71753;SDS011;59593;51.716;7.016;2023-11-21T12:12:54;30.73;;;17.67;;
71753;SDS011;59593;51.716;7.016;2023-11-21T12:15:21;26.13;;;17.30;;
71753;SDS011;59593;51.716;7.016;2023-11-21T12:17:47;29.37;;;18.13;;
71753;SDS011;59593;51.716;7.016;2023-11-21T12:20:15;28.57;;;18.67;;
71753;SDS011;59593;51.716;7.016;2023-11-21T12:22:47;31.30;;;19.07;;
71753;SDS011;59593;51.716;7.016;2023-11-21T12:25:14;29.43;;;18.50;;
71753;SDS011;59593;51.716;7.016;2023-11-21T12:27:43;32.17;;;18.38;;
71753;SDS011;59593;51.716;7.016;2023-11-21T12:30:14;28.73;;;18.77;;
71753;SDS011;59593;51.716;7.016;2023-11-21T12:32:42;24.80;;;16.00;;
71753;SDS011;59593;51.716;7.016;2023-11-21T12:35:09;26.53;;;16.80;;
71753;SDS011;59593;51.716;7.016;2023-11-21T12:37:36;26.87;;;16.13;;
71753;SDS011;59593;51.716;7.016;2023-11-21T12:40:07;25.37;;;16.20;;
71753;SDS011;59593;51.716;7.016;2023-11-21T12:42:36;27.87;;;16.27;;
71753;SDS011;59593;51.716;7.016;2023-11-21T12:45:18;26.53;;;15.63;;
71753;SDS011;59593;51.716;7.016;2023-11-21T12:47:45;25.70;;;16.00;;
71753;SDS011;59593;51.716;7.016;2023-11-21T12:50:18;26.27;;;16.23;;
71753;SDS011;59593;51.716;7.016;2023-11-21T12:52:48;23.20;;;15.27;;
71753;SDS011;59593;51.716;7.016;2023-11-21T12:55:15;27.20;;;16.40;;
71753;SDS011;59593;51.716;7.016;2023-11-21T12:57:43;25.53;;;16.97;;
71753;SDS011;59593;51.716;7.016;2023-11-21T13:00:09;26.93;;;16.10;;
71753;SDS011;59593;51.716;7.016;2023-11-21T13:02:40;23.57;;;15.80;;
71753;SDS011;59593;51.716;7.016;2023-11-21T13:05:08;21.87;;;15.27;;
71753;SDS011;59593;51.716;7.016;2023-11-21T13:07:43;22.43;;;14.33;;
71753;SDS011;59593;51.716;7.016;2023-11-21T13:10:12;20.03;;;14.27;;
71753;SDS011;59593;51.716;7.016;2023-11-21T13:12:45;21.93;;;14.10;;
71753;SDS011;59593;51.716;7.016;2023-11-21T13:15:14;21.10;;;14.57;;
71753;SDS011;59593;51.716;7.016;2023-11-21T13:17:43;23.70;;;14.13;;
71753;SDS011;59593;51.716;7.016;2023-11-21T13:20:12;21.77;;;13.57;;
71753;SDS011;59593;51.716;7.016;2023-11-21T13:22:48;19.50;;;13.07;;
71753;SDS011;59593;51.716;7.016;2023-11-21T13:25:24;21.13;;;13.60;;
71753;SDS011;59593;51.716;7.016;2023-11-21T13:27:53;18.67;;;13.37;;
71753;SDS011;59593;51.716;7.016;2023-11-21T13:30:19;23.97;;;13.53;;
71753;SDS011;59593;51.716;7.016;2023-11-21T13:32:51;19.30;;;13.57;;
71753;SDS011;59593;51.716;7.016;2023-11-21T13:35:18;21.30;;;13.47;;
71753;SDS011;59593;51.716;7.016;2023-11-21T13:37:55;20.27;;;13.00;;
71753;SDS011;59593;51.716;7.016;2023-11-21T13:40:25;19.87;;;12.13;;
71753;SDS011;59593;51.716;7.016;2023-11-21T13:42:55;18.53;;;12.03;;
71753;SDS011;59593;51.716;7.016;2023-11-21T13:45:24;20.53;;;11.83;;
71753;SDS011;59593;51.716;7.016;2023-11-21T13:47:51;20.80;;;12.17;;
71753;SDS011;59593;51.716;7.016;2023-11-21T13:50:19;19.97;;;12.23;;
71753;SDS011;59593;51.716;7.016;2023-11-21T13:52:49;18.93;;;11.90;;
71753;SDS011;59593;51.716;7.016;2023-11-21T13:55:19;16.40;;;11.17;;
71753;SDS011;59593;51.716;7.016;2023-11-21T13:57:46;18.50;;;11.83;;
71753;SDS011;59593;51.716;7.016;2023-11-21T14:00:17;17.07;;;11.43;;
71753;SDS011;59593;51.716;7.016;2023-11-21T14:03:15;16.87;;;10.93;;
71753;SDS011;59593;51.716;7.016;2023-11-21T14:05:47;17.10;;;11.23;;
71753;SDS011;59593;51.716;7.016;2023-11-21T14:08:17;17.03;;;11.10;;
71753;SDS011;59593;51.716;7.016;2023-11-21T14:10:49;14.30;;;10.43;;
71753;SDS011;59593;51.716;7.016;2023-11-21T14:13:22;16.10;;;10.73;;
71753;SDS011;59593;51.716;7.016;2023-11-21T14:15:49;12.63;;;9.43;;
71753;SDS011;59593;51.716;7.016;2023-11-21T14:18:27;13.67;;;10.03;;
71753;SDS011;59593;51.716;7.016;2023-11-21T14:21:03;13.97;;;9.53;;
71753;SDS011;59593;51.716;7.016;2023-11-21T14:23:30;16.10;;;10.67;;
71753;SDS011;59593;51.716;7.016;2023-11-21T14:25:56;12.90;;;8.93;;
71753;SDS011;59593;51.716;7.016;2023-11-21T14:28:23;12.57;;;9.60;;
71753;SDS011;59593;51.716;7.016;2023-11-21T14:30:48;13.00;;;9.67;;
71753;SDS011;59593;51.716;7.016;2023-11-21T14:33:14;15.20;;;10.03;;
71753;SDS011;59593;51.716;7.016;2023-11-21T14:35:41;12.53;;;10.23;;
71753;SDS011;59593;51.716;7.016;2023-11-21T14:38:07;13.33;;;10.40;;